Alts del Cafetal, Puerto Rico
Current Conditions -  °F | °C
As of 11:50 PM on Thursday 27 Nov 2014 (Local Time) from TJBQ Reporting Station
Clear Clear  
Wind Chill: 73°   Ceiling: Unl
Heat Index: 73°   Visibility: 10mi
Dew Point: 66°   Wind: 3mph
Humidity: 78%   Direction: 150°SSE
Pressure: 29.98"   Gusts: NA
Location:  18.0306°N, 66.8507°W
Report Text: TJBQ 280350Z 15003KT 10SM SKC 23/19 A2998 RMK RWY 08 ATIS L
Loading
Personal Weather Stations






























Interactive Weather Map New forecast layout! Learn more

10-Day Weather Forecast

Advertisements
Track Severe Weather on mobile